Latest Coastal Weather Observations for Adele Island

IDW60701

Issued at 8:13 pm WST Sunday 22 January 2017 (issued every 10 minutes, with the page automatically refreshed every 10 minutes)

About coastal observations | Map of coastal stations | Coastal observations for WA | Marine services | Other Formats
Station Details ID: 200735 Name: ADELE ISLAND Lat: -15.51 Lon: 123.16 Height: 4.6 m
Data from the previous 72 hours. | See also: Recent months at Adele Island
Date/Time
WST
Temp
°C
Wind Pressure Rain since
9am
mm
Weather Cloud Vis
km
Sea
Height
m
Swell
Dir  Spd
kts
Gust
kts
hPa Trend Height
m
Period
s
Dir
22/08:00pm 28.4 WSW 11 15 1008.7 - - - - - - - - -
22/07:30pm 28.4 WSW 11 14 1008.5 - - - - - - - - -
22/07:00pm 28.5 WSW 11 15 1008.3 - - - - - - - - -
22/06:30pm 28.6 WSW 13 15 1007.9 - - - - - - - - -
22/06:00pm 28.8 W 12 15 1007.5 - - - - - - - - -
22/05:30pm 29.0 W 12 14 1007.3 - - - - - - - - -
22/05:00pm 28.9 W 12 15 1007.2 - - - - - - - - -
22/04:30pm 29.3 WSW 13 16 1007.0 - - - - - - - - -
22/04:00pm 29.2 WSW 12 15 1006.9 - - - - - - - - -
22/03:30pm 29.2 WSW 13 15 1007.0 - - - - - - - - -
22/03:00pm 29.4 W 12 15 1007.3 - - - - - - - - -
22/02:30pm 29.7 WSW 12 15 1007.7 - - - - - - - - -
22/02:00pm 29.5 WSW 13 14 1007.9 - - - - - - - - -
22/01:30pm 29.3 WSW 13 16 1008.4 - - - - - - - - -
22/01:00pm 30.0 W 12 15 1008.7 - - - - - - - - -
22/12:30pm 29.7 W 13 15 1008.8 - - - - - - - - -
22/12:00pm 30.1 W 12 15 1009.0 - - - - - - - - -
22/11:30am 29.5 W 11 15 1009.5 - - - - - - - - -
22/11:00am 29.3 W 11 14 1009.7 - - - - - - - - -
22/10:30am 29.5 W 11 14 1010.0 - - - - - - - - -
22/10:00am 29.4 W 10 13 1010.1 - - - - - - - - -
22/09:30am 29.2 W 11 13 1010.2 - - - - - - - - -
22/09:00am 29.2 WSW 11 13 1010.3 - - - - - - - - -
22/08:30am 29.0 W 10 13 1010.3 - - - - - - - - -
22/08:00am 29.0 WSW 10 13 1010.3 - - - - - - - - -
22/07:30am 28.7 WSW 12 14 1010.0 - - - - - - - - -
22/07:00am 28.4 WSW 10 13 1010.0 - - - - - - - - -
22/06:30am 28.2 WSW 11 14 1009.8 - - - - - - - - -
22/06:00am 27.9 WSW 11 14 1009.5 - - - - - - - - -
22/05:30am 28.0 W 12 15 1009.3 - - - - - - - - -
22/05:00am 28.1 W 12 14 1009.2 - - - - - - - - -
22/04:30am 27.9 W 10 13 1009.0 - - - - - - - - -
22/04:00am 28.0 W 11 13 1008.8 - - - - - - - - -
22/03:30am 28.2 W 13 15 1008.6 - - - - - - - - -
22/03:00am 27.9 W 12 14 1008.6 - - - - - - - - -
22/02:30am 28.2 W 13 15 1008.9 - - - - - - - - -
22/02:00am 27.2 WSW 8 13 1009.0 - - - - - - - - -
22/01:30am 27.1 WSW 9 12 1009.1 - - - - - - - - -
22/01:00am 27.5 W 8 13 1009.2 - - - - - - - - -
22/12:30am 27.7 WNW 9 14 1009.2 - - - - - - - - -
22/12:00am 28.1 WNW 7 9 1009.5 - - - - - - - - -
 
Date/Time
WST
Temp
°C
Wind Pressure Rain since
9am
mm
Weather Cloud Vis
km
Sea
Height
m
Swell
Dir  Spd
kts
Gust
kts
hPa Trend Height
m
Period
s
Dir
21/11:30pm 28.3 W 8 11 1009.8 - - - - - - - - -
21/11:00pm 28.2 WSW 9 11 1009.8 - - - - - - - - -
21/10:30pm 28.3 W 9 12 1009.9 - - - - - - - - -
21/10:00pm 28.3 WNW 9 11 1009.9 - - - - - - - - -
21/09:30pm 28.6 W 10 13 1009.7 - - - - - - - - -
21/09:00pm 28.5 W 9 11 1009.4 - - - - - - - - -
21/08:30pm 28.5 W 10 12 1009.1 - - - - - - - - -
21/08:00pm 28.4 W 10 12 1008.9 - - - - - - - - -
21/07:30pm 28.6 W 9 11 1008.8 - - - - - - - - -
21/07:00pm 28.6 W 8 11 1008.6 - - - - - - - - -
21/06:30pm 28.1 NW 8 10 1008.5 - - - - - - - - -
21/06:00pm 28.8 WNW 9 12 1008.1 - - - - - - - - -
21/05:30pm 29.1 WNW 9 11 1007.8 - - - - - - - - -
21/05:00pm 29.2 WNW 9 11 1007.5 - - - - - - - - -
21/04:30pm 29.4 WNW 9 12 1007.3 - - - - - - - - -
21/04:00pm 29.5 WNW 8 10 1007.3 - - - - - - - - -
21/03:30pm 30.0 WNW 8 11 1007.2 - - - - - - - - -
21/03:00pm 29.8 NW 9 11 1007.4 - - - - - - - - -
21/02:30pm 29.7 NNW 8 11 1007.6 - - - - - - - - -
21/02:00pm 29.2 NNW 8 10 1007.9 - - - - - - - - -
21/01:30pm 29.8 NW 7 9 1008.0 - - - - - - - - -
21/01:00pm 29.7 NW 8 11 1008.2 - - - - - - - - -
21/12:30pm 29.4 NW 9 12 1008.3 - - - - - - - - -
21/12:00pm 29.7 NW 9 11 1008.5 - - - - - - - - -
21/11:30am 29.1 NW 8 11 1008.6 - - - - - - - - -
21/11:00am 30.0 NW 7 11 1008.8 - - - - - - - - -
21/10:30am 29.4 WNW 9 11 1009.1 - - - - - - - - -
21/10:00am 29.7 WNW 7 10 1009.4 - - - - - - - - -
21/09:30am 29.4 WNW 8 11 1009.5 - - - - - - - - -
21/09:00am 29.8 WNW 9 11 1009.4 - - - - - - - - -
21/08:30am 29.4 W 9 10 1009.4 - - - - - - - - -
21/08:00am 29.0 WNW 8 10 1009.4 - - - - - - - - -
21/07:30am 28.6 WNW 7 9 1009.3 - - - - - - - - -
21/07:00am 28.4 WNW 8 9 1009.2 - - - - - - - - -
21/06:30am 28.3 WNW 8 9 1009.2 - - - - - - - - -
21/06:00am 28.2 WNW 8 9 1008.8 - - - - - - - - -
21/05:30am 28.2 W 9 10 1008.1 - - - - - - - - -
21/05:00am 28.1 WSW 9 11 1007.7 - - - - - - - - -
21/04:30am 28.2 WSW 11 13 1007.3 - - - - - - - - -
21/04:00am 28.0 W 11 13 1007.0 - - - - - - - - -
21/03:30am 28.0 WSW 11 13 1007.1 - - - - - - - - -
21/03:00am 27.9 WSW 9 11 1007.0 - - - - - - - - -
21/02:30am 28.3 WSW 11 14 1007.1 - - - - - - - - -
21/02:00am 28.1 WSW 12 15 1007.1 - - - - - - - - -
21/01:30am 28.1 WSW 11 13 1007.1 - - - - - - - - -
21/01:00am 28.1 WSW 12 14 1007.1 - - - - - - - - -
21/12:30am 28.0 W 12 14 1007.1 - - - - - - - - -
21/12:00am 28.1 WSW 11 13 1007.3 - - - - - - - - -
 
Date/Time
WST
Temp
°C
Wind Pressure Rain since
9am
mm
Weather Cloud Vis
km
Sea
Height
m
Swell
Dir  Spd
kts
Gust
kts
hPa Trend Height
m
Period
s
Dir
20/11:30pm 28.1 WSW 11 14 1007.6 - - - - - - - - -
20/11:00pm 28.1 W 10 12 1007.9 - - - - - - - - -
20/10:30pm 28.1 W 12 14 1008.0 - - - - - - - - -
20/10:00pm 28.2 W 12 14 1008.1 - - - - - - - - -
20/09:30pm 28.2 W 11 13 1008.0 - - - - - - - - -
20/09:00pm 28.3 WSW 11 14 1007.7 - - - - - - - - -
20/08:30pm 28.4 WSW 11 13 1007.5 - - - - - - - - -
20/08:00pm 28.6 W 12 14 1007.4 - - - - - - - - -
20/07:30pm 28.6 WSW 12 15 1007.0 - - - - - - - - -
20/07:00pm 28.5 WSW 12 14 1006.7 - - - - - - - - -
20/06:30pm 28.7 W 12 15 1006.3 - - - - - - - - -
20/06:00pm 28.6 W 11 14 1006.0 - - - - - - - - -
20/05:30pm 28.8 W 12 15 1005.8 - - - - - - - - -
20/05:00pm 28.9 W 11 14 1005.5 - - - - - - - - -
20/04:30pm 29.2 W 12 15 1005.2 - - - - - - - - -
20/04:00pm 29.5 W 13 16 1005.2 - - - - - - - - -
20/03:30pm 29.2 W 13 16 1005.2 - - - - - - - - -
20/03:00pm 29.5 W 13 16 1005.1 - - - - - - - - -
20/02:30pm 29.3 W 13 16 1005.3 - - - - - - - - -
20/02:00pm 29.2 W 14 16 1005.5 - - - - - - - - -
20/01:30pm 28.9 W 13 16 1005.7 - - - - - - - - -
20/01:00pm 28.7 W 12 14 1006.2 - - - - - - - - -
20/12:30pm 27.8 W 11 17 1006.6 - - - - - - - - -
20/12:00pm 29.1 W 12 14 1006.8 - - - - - - - - -
20/11:30am 29.0 W 11 14 1007.0 - - - - - - - - -
20/11:00am 28.7 W 12 14 1007.1 - - - - - - - - -
20/10:30am 28.6 WNW 12 15 1007.4 - - - - - - - - -
20/10:00am 28.5 W 12 15 1007.5 - - - - - - - - -
20/09:30am 28.5 W 12 15 1007.4 - - - - - - - - -
20/09:00am 28.6 W 13 16 1007.5 - - - - - - - - -
20/08:30am 28.6 W 11 14 1007.5 - - - - - - - - -
20/08:00am 28.4 W 12 15 1007.0 - - - - - - - - -
20/07:30am 28.3 WSW 12 14 1006.9 - - - - - - - - -
20/07:00am 28.3 W 11 13 1006.7 - - - - - - - - -
20/06:30am 28.1 W 9 11 1006.4 - - - - - - - - -
20/06:00am 28.0 W 10 12 1006.0 - - - - - - - - -
20/05:30am 27.3 NW 4 5 1005.5 - - - - - - - - -
20/05:00am 26.5 NNW 8 11 1005.6 - - - - - - - - -
20/04:30am 27.8 W 10 17 1005.4 - - - - - - - - -
20/04:00am 28.1 W 9 11 1005.2 - - - - - - - - -
20/03:30am 27.8 W 8 9 1005.1 - - - - - - - - -
20/03:00am 27.9 W 8 11 1005.2 - - - - - - - - -
20/02:30am 27.9 WSW 9 13 1005.4 - - - - - - - - -
20/02:00am 27.9 W 10 12 1005.6 - - - - - - - - -
20/01:30am 27.9 W 11 13 1005.2 - - - - - - - - -
20/01:00am 27.8 W 10 12 1005.5 - - - - - - - - -
20/12:30am 27.8 W 12 14 1005.8 - - - - - - - - -
20/12:00am 27.7 W 13 16 1006.0 - - - - - - - - -
 
Date/Time
WST
Temp
°C
Wind Pressure Rain since
9am
mm
Weather Cloud Vis
km
Sea
Height
m
Swell
Dir  Spd
kts
Gust
kts
hPa Trend Height
m
Period
s
Dir
19/11:30pm 27.8 W 12 15 1006.4 - - - - - - - - -
19/11:00pm 27.6 W 13 16 1007.0 - - - - - - - - -
19/10:30pm 27.3 WSW 12 16 1007.3 - - - - - - - - -
19/10:00pm 28.1 WNW 11 14 1007.4 - - - - - - - - -
19/09:30pm 28.2 WNW 12 14 1007.4 - - - - - - - - -
19/09:00pm 28.3 WNW 13 16 1006.9 - - - - - - - - -
19/08:30pm 28.2 WNW 13 15 1006.7 - - - - - - - - -

Other Formats:

Comma delimited format used in spreadsheet applications
http://www.bom.gov.au/fwo/IDW60701/IDW60701.94210.axf

JavaScript Object Notation format (JSON) in row-major order
http://www.bom.gov.au/fwo/IDW60701/IDW60701.94210.json